sensor_id;sensor_type;location;lat;lon;timestamp;temperature;humidity
50989;DHT22;37008;52.210;21.112;2022-10-31T00:01:16;6.20;99.90
50989;DHT22;37008;52.210;21.112;2022-10-31T00:03:42;6.20;99.90
50989;DHT22;37008;52.210;21.112;2022-10-31T00:06:07;6.20;99.90
50989;DHT22;37008;52.210;21.112;2022-10-31T00:08:33;6.20;99.90
50989;DHT22;37008;52.210;21.112;2022-10-31T00:10:58;6.30;99.90
50989;DHT22;37008;52.210;21.112;2022-10-31T00:13:24;6.20;99.90
50989;DHT22;37008;52.210;21.112;2022-10-31T00:15:50;6.20;99.90
50989;DHT22;37008;52.210;21.112;2022-10-31T00:18:15;6.20;99.90
50989;DHT22;37008;52.210;21.112;2022-10-31T00:20:41;6.20;99.90
50989;DHT22;37008;52.210;21.112;2022-10-31T00:23:06;6.20;99.90
50989;DHT22;37008;52.210;21.112;2022-10-31T00:25:34;6.10;99.90
50989;DHT22;37008;52.210;21.112;2022-10-31T00:28:01;6.10;99.90
50989;DHT22;37008;52.210;21.112;2022-10-31T00:30:26;6.10;99.90
50989;DHT22;37008;52.210;21.112;2022-10-31T00:32:52;6.00;99.90
50989;DHT22;37008;52.210;21.112;2022-10-31T00:35:18;6.00;99.90
50989;DHT22;37008;52.210;21.112;2022-10-31T00:37:43;6.00;99.90
50989;DHT22;37008;52.210;21.112;2022-10-31T00:40:09;5.90;99.90
50989;DHT22;37008;52.210;21.112;2022-10-31T00:42:35;5.90;99.90
50989;DHT22;37008;52.210;21.112;2022-10-31T00:45:01;5.80;99.90
50989;DHT22;37008;52.210;21.112;2022-10-31T00:47:26;5.90;99.90
50989;DHT22;37008;52.210;21.112;2022-10-31T00:49:52;5.80;99.90
50989;DHT22;37008;52.210;21.112;2022-10-31T00:52:17;5.80;99.90
50989;DHT22;37008;52.210;21.112;2022-10-31T00:54:43;5.80;99.90
50989;DHT22;37008;52.210;21.112;2022-10-31T00:57:08;5.80;99.90
50989;DHT22;37008;52.210;21.112;2022-10-31T00:59:34;5.80;99.90
50989;DHT22;37008;52.210;21.112;2022-10-31T01:01:59;5.70;99.90
50989;DHT22;37008;52.210;21.112;2022-10-31T01:04:25;5.80;99.90
50989;DHT22;37008;52.210;21.112;2022-10-31T01:06:50;5.70;99.90
50989;DHT22;37008;52.210;21.112;2022-10-31T01:09:16;5.70;99.90
50989;DHT22;37008;52.210;21.112;2022-10-31T01:11:42;5.70;99.90
50989;DHT22;37008;52.210;21.112;2022-10-31T01:14:08;5.70;99.90
50989;DHT22;37008;52.210;21.112;2022-10-31T01:16:34;5.70;99.90
50989;DHT22;37008;52.210;21.112;2022-10-31T01:18:59;5.70;99.90
50989;DHT22;37008;52.210;21.112;2022-10-31T01:21:27;5.70;99.90
50989;DHT22;37008;52.210;21.112;2022-10-31T01:23:54;5.70;99.90
50989;DHT22;37008;52.210;21.112;2022-10-31T01:26:25;5.70;99.90
50989;DHT22;37008;52.210;21.112;2022-10-31T01:28:57;5.70;99.90
50989;DHT22;37008;52.210;21.112;2022-10-31T01:31:25;5.70;99.90
50989;DHT22;37008;52.210;21.112;2022-10-31T01:33:51;5.70;99.90
50989;DHT22;37008;52.210;21.112;2022-10-31T01:36:18;5.60;99.90
50989;DHT22;37008;52.210;21.112;2022-10-31T01:38:45;5.60;99.90
50989;DHT22;37008;52.210;21.112;2022-10-31T01:41:13;5.60;99.90
50989;DHT22;37008;52.210;21.112;2022-10-31T01:43:45;5.60;99.90
50989;DHT22;37008;52.210;21.112;2022-10-31T01:46:11;5.60;99.90
50989;DHT22;37008;52.210;21.112;2022-10-31T01:48:38;5.60;99.90
50989;DHT22;37008;52.210;21.112;2022-10-31T01:51:04;5.60;99.90
50989;DHT22;37008;52.210;21.112;2022-10-31T01:53:31;5.60;99.90
50989;DHT22;37008;52.210;21.112;2022-10-31T01:55:58;5.50;99.90
50989;DHT22;37008;52.210;21.112;2022-10-31T01:58:26;5.50;99.90
50989;DHT22;37008;52.210;21.112;2022-10-31T02:00:57;5.50;99.90
50989;DHT22;37008;52.210;21.112;2022-10-31T02:03:24;5.50;99.90
50989;DHT22;37008;52.210;21.112;2022-10-31T02:05:54;5.40;99.90
50989;DHT22;37008;52.210;21.112;2022-10-31T02:08:27;5.40;99.90
50989;DHT22;37008;52.210;21.112;2022-10-31T02:10:53;5.40;99.90
50989;DHT22;37008;52.210;21.112;2022-10-31T02:13:20;5.40;99.90
50989;DHT22;37008;52.210;21.112;2022-10-31T02:15:50;5.30;99.90
50989;DHT22;37008;52.210;21.112;2022-10-31T02:18:17;5.30;99.90
50989;DHT22;37008;52.210;21.112;2022-10-31T02:21:15;5.30;99.90
50989;DHT22;37008;52.210;21.112;2022-10-31T02:23:51;5.30;99.90
50989;DHT22;37008;52.210;21.112;2022-10-31T02:26:41;5.20;99.90
50989;DHT22;37008;52.210;21.112;2022-10-31T02:35:00;5.10;99.90
50989;DHT22;37008;52.210;21.112;2022-10-31T02:45:21;5.00;99.90
50989;DHT22;37008;52.210;21.112;2022-10-31T02:47:49;5.00;99.90
50989;DHT22;37008;52.210;21.112;2022-10-31T02:50:26;4.90;99.90
50989;DHT22;37008;52.210;21.112;2022-10-31T02:52:53;4.90;99.90
50989;DHT22;37008;52.210;21.112;2022-10-31T02:57:54;4.90;99.90
50989;DHT22;37008;52.210;21.112;2022-10-31T03:00:21;4.80;99.90
50989;DHT22;37008;52.210;21.112;2022-10-31T03:02:56;4.80;99.90
50989;DHT22;37008;52.210;21.112;2022-10-31T03:08:45;4.80;99.90
50989;DHT22;37008;52.210;21.112;2022-10-31T03:11:17;4.80;99.90
50989;DHT22;37008;52.210;21.112;2022-10-31T03:16:21;4.80;99.90
50989;DHT22;37008;52.210;21.112;2022-10-31T03:19:01;4.90;99.90
50989;DHT22;37008;52.210;21.112;2022-10-31T03:21:41;4.80;99.90
50989;DHT22;37008;52.210;21.112;2022-10-31T03:24:09;4.80;99.90
50989;DHT22;37008;52.210;21.112;2022-10-31T03:26:38;4.80;99.90
50989;DHT22;37008;52.210;21.112;2022-10-31T03:29:08;4.80;99.90
50989;DHT22;37008;52.210;21.112;2022-10-31T03:31:38;4.80;99.90
50989;DHT22;37008;52.210;21.112;2022-10-31T03:34:06;4.80;99.90
50989;DHT22;37008;52.210;21.112;2022-10-31T03:36:35;4.80;99.90
50989;DHT22;37008;52.210;21.112;2022-10-31T03:39:04;4.70;99.90
50989;DHT22;37008;52.210;21.112;2022-10-31T03:41:34;4.80;99.90
50989;DHT22;37008;52.210;21.112;2022-10-31T03:44:16;4.80;99.90
50989;DHT22;37008;52.210;21.112;2022-10-31T03:46:43;4.70;99.90
50989;DHT22;37008;52.210;21.112;2022-10-31T03:49:09;4.70;99.90
50989;DHT22;37008;52.210;21.112;2022-10-31T03:51:46;4.80;99.90
50989;DHT22;37008;52.210;21.112;2022-10-31T03:54:46;4.80;99.90
50989;DHT22;37008;52.210;21.112;2022-10-31T03:59:55;4.70;99.90
50989;DHT22;37008;52.210;21.112;2022-10-31T04:02:27;4.70;99.90
50989;DHT22;37008;52.210;21.112;2022-10-31T04:04:54;4.70;99.90
50989;DHT22;37008;52.210;21.112;2022-10-31T04:07:23;4.70;99.90
50989;DHT22;37008;52.210;21.112;2022-10-31T04:09:53;4.70;99.90
50989;DHT22;37008;52.210;21.112;2022-10-31T04:12:19;4.60;99.90
50989;DHT22;37008;52.210;21.112;2022-10-31T04:14:47;4.60;99.90
50989;DHT22;37008;52.210;21.112;2022-10-31T04:17:16;4.60;99.90
50989;DHT22;37008;52.210;21.112;2022-10-31T04:19:43;4.60;99.90
50989;DHT22;37008;52.210;21.112;2022-10-31T04:22:09;4.60;99.90
50989;DHT22;37008;52.210;21.112;2022-10-31T04:24:36;4.60;99.90
50989;DHT22;37008;52.210;21.112;2022-10-31T04:27:03;4.60;99.90
50989;DHT22;37008;52.210;21.112;2022-10-31T04:29:28;4.60;99.90
50989;DHT22;37008;52.210;21.112;2022-10-31T04:31:54;4.60;99.90
50989;DHT22;37008;52.210;21.112;2022-10-31T04:34:19;4.60;99.90
50989;DHT22;37008;52.210;21.112;2022-10-31T04:36:45;4.60;99.90
50989;DHT22;37008;52.210;21.112;2022-10-31T04:39:11;4.60;99.90
50989;DHT22;37008;52.210;21.112;2022-10-31T04:41:36;4.70;99.90
50989;DHT22;37008;52.210;21.112;2022-10-31T04:44:02;4.60;99.90
50989;DHT22;37008;52.210;21.112;2022-10-31T04:46:27;4.70;99.90
50989;DHT22;37008;52.210;21.112;2022-10-31T04:48:53;4.70;99.90
50989;DHT22;37008;52.210;21.112;2022-10-31T04:51:18;4.70;99.90
50989;DHT22;37008;52.210;21.112;2022-10-31T04:53:44;4.70;99.90
50989;DHT22;37008;52.210;21.112;2022-10-31T04:56:09;4.70;99.90
50989;DHT22;37008;52.210;21.112;2022-10-31T04:58:35;4.70;99.90
50989;DHT22;37008;52.210;21.112;2022-10-31T05:01:01;4.70;99.90
50989;DHT22;37008;52.210;21.112;2022-10-31T05:03:26;4.70;99.90
50989;DHT22;37008;52.210;21.112;2022-10-31T05:05:52;4.80;99.90
50989;DHT22;37008;52.210;21.112;2022-10-31T05:08:17;4.70;99.90
50989;DHT22;37008;52.210;21.112;2022-10-31T05:10:43;4.70;99.90
50989;DHT22;37008;52.210;21.112;2022-10-31T05:13:09;4.70;99.90
50989;DHT22;37008;52.210;21.112;2022-10-31T05:15:34;4.70;99.90
50989;DHT22;37008;52.210;21.112;2022-10-31T05:18:00;4.70;99.90
50989;DHT22;37008;52.210;21.112;2022-10-31T05:20:28;4.70;99.90
50989;DHT22;37008;52.210;21.112;2022-10-31T05:22:55;4.70;99.90
50989;DHT22;37008;52.210;21.112;2022-10-31T05:25:23;4.70;99.90
50989;DHT22;37008;52.210;21.112;2022-10-31T05:27:50;4.70;99.90
50989;DHT22;37008;52.210;21.112;2022-10-31T05:30:18;4.70;99.90
50989;DHT22;37008;52.210;21.112;2022-10-31T05:32:47;4.70;99.90
50989;DHT22;37008;52.210;21.112;2022-10-31T05:35:16;4.80;99.90
50989;DHT22;37008;52.210;21.112;2022-10-31T05:37:42;4.80;99.90
50989;DHT22;37008;52.210;21.112;2022-10-31T05:40:11;4.90;99.90
50989;DHT22;37008;52.210;21.112;2022-10-31T05:42:39;4.90;99.90
50989;DHT22;37008;52.210;21.112;2022-10-31T05:45:06;5.00;99.90
50989;DHT22;37008;52.210;21.112;2022-10-31T05:47:32;5.00;99.90
50989;DHT22;37008;52.210;21.112;2022-10-31T05:49:57;5.10;99.90
50989;DHT22;37008;52.210;21.112;2022-10-31T05:52:23;5.10;99.90
50989;DHT22;37008;52.210;21.112;2022-10-31T05:54:49;5.20;99.90
50989;DHT22;37008;52.210;21.112;2022-10-31T05:57:14;5.20;99.90
50989;DHT22;37008;52.210;21.112;2022-10-31T05:59:40;5.30;99.90
50989;DHT22;37008;52.210;21.112;2022-10-31T06:02:05;5.30;99.90
50989;DHT22;37008;52.210;21.112;2022-10-31T06:04:31;5.40;99.90
50989;DHT22;37008;52.210;21.112;2022-10-31T06:06:57;5.40;99.90
50989;DHT22;37008;52.210;21.112;2022-10-31T06:09:22;5.40;99.90
50989;DHT22;37008;52.210;21.112;2022-10-31T06:11:48;5.50;99.90
50989;DHT22;37008;52.210;21.112;2022-10-31T06:14:13;5.50;99.90
50989;DHT22;37008;52.210;21.112;2022-10-31T06:16:39;5.60;99.90
50989;DHT22;37008;52.210;21.112;2022-10-31T06:19:05;5.60;99.90
50989;DHT22;37008;52.210;21.112;2022-10-31T06:21:30;5.70;99.90
50989;DHT22;37008;52.210;21.112;2022-10-31T06:23:56;5.70;99.90
50989;DHT22;37008;52.210;21.112;2022-10-31T06:26:21;5.80;99.90
50989;DHT22;37008;52.210;21.112;2022-10-31T06:28:47;5.80;99.90
50989;DHT22;37008;52.210;21.112;2022-10-31T06:31:13;5.90;99.90
50989;DHT22;37008;52.210;21.112;2022-10-31T06:33:41;6.00;99.90
50989;DHT22;37008;52.210;21.112;2022-10-31T06:36:06;6.10;99.90
50989;DHT22;37008;52.210;21.112;2022-10-31T06:38:32;6.20;99.90
50989;DHT22;37008;52.210;21.112;2022-10-31T06:41:00;6.30;99.90
50989;DHT22;37008;52.210;21.112;2022-10-31T06:43:26;6.40;99.90
50989;DHT22;37008;52.210;21.112;2022-10-31T06:45:52;6.50;99.90
50989;DHT22;37008;52.210;21.112;2022-10-31T06:48:18;6.60;99.90
50989;DHT22;37008;52.210;21.112;2022-10-31T06:50:43;6.70;99.90
50989;DHT22;37008;52.210;21.112;2022-10-31T06:53:09;6.80;99.90
50989;DHT22;37008;52.210;21.112;2022-10-31T06:55:34;6.90;99.90
50989;DHT22;37008;52.210;21.112;2022-10-31T06:58:00;7.00;99.90
50989;DHT22;37008;52.210;21.112;2022-10-31T07:00:28;7.10;99.90
50989;DHT22;37008;52.210;21.112;2022-10-31T07:03:02;7.20;99.90
50989;DHT22;37008;52.210;21.112;2022-10-31T07:05:29;7.30;99.90
50989;DHT22;37008;52.210;21.112;2022-10-31T07:07:56;7.40;99.90
50989;DHT22;37008;52.210;21.112;2022-10-31T07:10:24;7.50;99.90
50989;DHT22;37008;52.210;21.112;2022-10-31T07:12:55;7.50;99.90
50989;DHT22;37008;52.210;21.112;2022-10-31T07:15:22;7.70;99.90
50989;DHT22;37008;52.210;21.112;2022-10-31T07:17:47;7.70;99.90
50989;DHT22;37008;52.210;21.112;2022-10-31T07:20:13;7.80;99.90
50989;DHT22;37008;52.210;21.112;2022-10-31T07:22:39;8.00;99.90
50989;DHT22;37008;52.210;21.112;2022-10-31T07:25:05;8.10;99.90
50989;DHT22;37008;52.210;21.112;2022-10-31T07:27:41;8.20;99.90
50989;DHT22;37008;52.210;21.112;2022-10-31T07:30:09;8.20;99.90
50989;DHT22;37008;52.210;21.112;2022-10-31T07:32:42;8.40;99.90
50989;DHT22;37008;52.210;21.112;2022-10-31T07:35:14;8.40;99.90
50989;DHT22;37008;52.210;21.112;2022-10-31T07:37:40;8.50;99.90
50989;DHT22;37008;52.210;21.112;2022-10-31T07:40:07;8.50;99.90
50989;DHT22;37008;52.210;21.112;2022-10-31T07:42:37;8.60;99.90
50989;DHT22;37008;52.210;21.112;2022-10-31T07:45:08;8.60;99.90
50989;DHT22;37008;52.210;21.112;2022-10-31T07:47:51;8.70;99.90
50989;DHT22;37008;52.210;21.112;2022-10-31T07:50:19;8.70;99.90
50989;DHT22;37008;52.210;21.112;2022-10-31T07:52:44;8.80;99.90
50989;DHT22;37008;52.210;21.112;2022-10-31T07:55:10;8.80;99.90
50989;DHT22;37008;52.210;21.112;2022-10-31T07:57:36;8.80;99.90
50989;DHT22;37008;52.210;21.112;2022-10-31T08:00:04;8.90;99.90
50989;DHT22;37008;52.210;21.112;2022-10-31T08:02:30;8.90;99.90
50989;DHT22;37008;52.210;21.112;2022-10-31T08:04:55;8.90;99.90
50989;DHT22;37008;52.210;21.112;2022-10-31T08:07:21;8.90;99.90
50989;DHT22;37008;52.210;21.112;2022-10-31T08:09:47;8.80;99.90
50989;DHT22;37008;52.210;21.112;2022-10-31T08:12:12;8.90;99.90
50989;DHT22;37008;52.210;21.112;2022-10-31T08:14:38;8.90;99.90
50989;DHT22;37008;52.210;21.112;2022-10-31T08:17:04;8.80;99.90
50989;DHT22;37008;52.210;21.112;2022-10-31T08:19:29;8.90;99.90
50989;DHT22;37008;52.210;21.112;2022-10-31T08:21:55;8.90;99.90
50989;DHT22;37008;52.210;21.112;2022-10-31T08:24:21;9.00;99.90
50989;DHT22;37008;52.210;21.112;2022-10-31T08:26:47;8.90;99.90
50989;DHT22;37008;52.210;21.112;2022-10-31T08:29:13;9.10;99.90
50989;DHT22;37008;52.210;21.112;2022-10-31T08:31:40;9.10;99.90
50989;DHT22;37008;52.210;21.112;2022-10-31T08:34:06;9.20;99.90
50989;DHT22;37008;52.210;21.112;2022-10-31T08:36:32;9.30;99.90
50989;DHT22;37008;52.210;21.112;2022-10-31T08:38:58;9.40;99.90
50989;DHT22;37008;52.210;21.112;2022-10-31T08:41:23;9.40;99.90
50989;DHT22;37008;52.210;21.112;2022-10-31T08:43:49;9.50;99.90
50989;DHT22;37008;52.210;21.112;2022-10-31T08:46:15;9.60;99.90
50989;DHT22;37008;52.210;21.112;2022-10-31T08:48:42;9.60;99.90
50989;DHT22;37008;52.210;21.112;2022-10-31T08:51:08;9.60;99.90
50989;DHT22;37008;52.210;21.112;2022-10-31T08:53:34;9.70;99.90
50989;DHT22;37008;52.210;21.112;2022-10-31T08:56:00;9.80;99.90
50989;DHT22;37008;52.210;21.112;2022-10-31T08:58:26;9.80;99.90
50989;DHT22;37008;52.210;21.112;2022-10-31T09:00:54;10.00;99.90
50989;DHT22;37008;52.210;21.112;2022-10-31T09:03:25;10.10;99.90
50989;DHT22;37008;52.210;21.112;2022-10-31T09:05:55;10.10;99.90
50989;DHT22;37008;52.210;21.112;2022-10-31T09:08:21;10.20;99.90
50989;DHT22;37008;52.210;21.112;2022-10-31T09:10:46;10.30;99.90
50989;DHT22;37008;52.210;21.112;2022-10-31T09:13:15;10.30;99.90
50989;DHT22;37008;52.210;21.112;2022-10-31T09:15:42;10.40;99.90
50989;DHT22;37008;52.210;21.112;2022-10-31T09:18:09;10.50;99.90
50989;DHT22;37008;52.210;21.112;2022-10-31T09:20:37;10.60;99.90
50989;DHT22;37008;52.210;21.112;2022-10-31T09:23:08;10.70;99.90
50989;DHT22;37008;52.210;21.112;2022-10-31T09:25:34;10.80;99.90
50989;DHT22;37008;52.210;21.112;2022-10-31T09:28:01;10.90;99.90
50989;DHT22;37008;52.210;21.112;2022-10-31T09:30:29;11.00;99.90
50989;DHT22;37008;52.210;21.112;2022-10-31T09:32:59;11.10;99.90
50989;DHT22;37008;52.210;21.112;2022-10-31T09:35:25;11.20;99.90
50989;DHT22;37008;52.210;21.112;2022-10-31T09:37:59;11.30;99.90
50989;DHT22;37008;52.210;21.112;2022-10-31T09:40:31;11.40;99.90
50989;DHT22;37008;52.210;21.112;2022-10-31T09:46:10;11.50;99.90
50989;DHT22;37008;52.210;21.112;2022-10-31T09:51:40;11.70;99.90
50989;DHT22;37008;52.210;21.112;2022-10-31T09:54:16;11.80;99.90
50989;DHT22;37008;52.210;21.112;2022-10-31T09:56:43;11.90;99.90
50989;DHT22;37008;52.210;21.112;2022-10-31T10:01:53;12.00;99.90
50989;DHT22;37008;52.210;21.112;2022-10-31T10:04:41;12.10;99.90
50989;DHT22;37008;52.210;21.112;2022-10-31T10:24:27;12.70;99.90
50989;DHT22;37008;52.210;21.112;2022-10-31T10:27:17;12.80;99.90
50989;DHT22;37008;52.210;21.112;2022-10-31T10:29:50;12.90;99.90
50989;DHT22;37008;52.210;21.112;2022-10-31T10:32:31;13.00;99.90
50989;DHT22;37008;52.210;21.112;2022-10-31T10:35:24;13.10;99.90
50989;DHT22;37008;52.210;21.112;2022-10-31T10:37:56;13.20;99.90
50989;DHT22;37008;52.210;21.112;2022-10-31T10:40:27;13.20;99.90
50989;DHT22;37008;52.210;21.112;2022-10-31T10:48:49;13.40;99.90
50989;DHT22;37008;52.210;21.112;2022-10-31T10:51:22;13.50;99.90
50989;DHT22;37008;52.210;21.112;2022-10-31T10:59:13;13.70;99.90
50989;DHT22;37008;52.210;21.112;2022-10-31T11:01:41;13.80;99.90
50989;DHT22;37008;52.210;21.112;2022-10-31T11:07:15;13.90;99.90
50989;DHT22;37008;52.210;21.112;2022-10-31T11:09:41;14.00;99.90
50989;DHT22;37008;52.210;21.112;2022-10-31T11:12:42;14.00;99.90
50989;DHT22;37008;52.210;21.112;2022-10-31T11:15:07;14.00;99.90
50989;DHT22;37008;52.210;21.112;2022-10-31T11:17:36;14.10;99.90
50989;DHT22;37008;52.210;21.112;2022-10-31T11:20:27;14.20;99.90
50989;DHT22;37008;52.210;21.112;2022-10-31T11:23:20;14.30;99.90
50989;DHT22;37008;52.210;21.112;2022-10-31T11:25:55;14.30;99.90
50989;DHT22;37008;52.210;21.112;2022-10-31T14:48:50;13.60;99.90
50989;DHT22;37008;52.210;21.112;2022-10-31T14:51:24;13.50;99.90
50989;DHT22;37008;52.210;21.112;2022-10-31T14:53:56;13.40;99.90
50989;DHT22;37008;52.210;21.112;2022-10-31T14:56:27;13.30;99.90
50989;DHT22;37008;52.210;21.112;2022-10-31T14:58:56;13.20;99.90
50989;DHT22;37008;52.210;21.112;2022-10-31T15:01:28;13.00;99.90
50989;DHT22;37008;52.210;21.112;2022-10-31T15:04:03;12.90;99.90
50989;DHT22;37008;52.210;21.112;2022-10-31T15:06:40;12.80;99.90
50989;DHT22;37008;52.210;21.112;2022-10-31T15:09:21;12.60;99.90
50989;DHT22;37008;52.210;21.112;2022-10-31T15:11:47;12.50;99.90
50989;DHT22;37008;52.210;21.112;2022-10-31T15:14:29;12.40;99.90
50989;DHT22;37008;52.210;21.112;2022-10-31T15:16:57;12.30;99.90
50989;DHT22;37008;52.210;21.112;2022-10-31T15:19:26;12.20;99.90
50989;DHT22;37008;52.210;21.112;2022-10-31T15:21:53;12.00;99.90
50989;DHT22;37008;52.210;21.112;2022-10-31T15:24:20;11.90;99.90
50989;DHT22;37008;52.210;21.112;2022-10-31T15:26:49;11.80;99.90
50989;DHT22;37008;52.210;21.112;2022-10-31T15:29:21;11.70;99.90
50989;DHT22;37008;52.210;21.112;2022-10-31T15:32:21;11.70;99.90
50989;DHT22;37008;52.210;21.112;2022-10-31T15:34:49;11.60;99.90
50989;DHT22;37008;52.210;21.112;2022-10-31T15:37:20;11.40;99.90
50989;DHT22;37008;52.210;21.112;2022-10-31T15:39:47;11.30;99.90
50989;DHT22;37008;52.210;21.112;2022-10-31T15:42:29;11.20;99.90
50989;DHT22;37008;52.210;21.112;2022-10-31T15:45:02;11.20;99.90
50989;DHT22;37008;52.210;21.112;2022-10-31T15:47:31;11.00;99.90
50989;DHT22;37008;52.210;21.112;2022-10-31T15:49:58;11.00;99.90
50989;DHT22;37008;52.210;21.112;2022-10-31T15:52:35;10.90;99.90
50989;DHT22;37008;52.210;21.112;2022-10-31T15:57:40;10.80;99.90
50989;DHT22;37008;52.210;21.112;2022-10-31T16:00:06;10.60;99.90
50989;DHT22;37008;52.210;21.112;2022-10-31T16:02:46;10.50;99.90
50989;DHT22;37008;52.210;21.112;2022-10-31T16:05:18;10.40;99.90
50989;DHT22;37008;52.210;21.112;2022-10-31T16:07:51;10.40;99.90
50989;DHT22;37008;52.210;21.112;2022-10-31T16:10:25;10.30;99.90
50989;DHT22;37008;52.210;21.112;2022-10-31T16:12:52;10.20;99.90
50989;DHT22;37008;52.210;21.112;2022-10-31T16:15:20;10.10;99.90
50989;DHT22;37008;52.210;21.112;2022-10-31T16:17:48;10.10;99.90
50989;DHT22;37008;52.210;21.112;2022-10-31T16:20:25;10.00;99.90
50989;DHT22;37008;52.210;21.112;2022-10-31T16:22:51;9.90;99.90
50989;DHT22;37008;52.210;21.112;2022-10-31T16:25:29;9.80;99.90
50989;DHT22;37008;52.210;21.112;2022-10-31T16:30:50;9.70;99.90
50989;DHT22;37008;52.210;21.112;2022-10-31T16:33:30;9.70;99.90
50989;DHT22;37008;52.210;21.112;2022-10-31T16:35:59;9.80;99.90
50989;DHT22;37008;52.210;21.112;2022-10-31T16:38:26;9.80;99.90
50989;DHT22;37008;52.210;21.112;2022-10-31T16:40:52;10.00;99.90
50989;DHT22;37008;52.210;21.112;2022-10-31T16:43:19;10.10;99.90
50989;DHT22;37008;52.210;21.112;2022-10-31T16:45:52;10.20;99.90
50989;DHT22;37008;52.210;21.112;2022-10-31T16:48:22;10.40;99.90
50989;DHT22;37008;52.210;21.112;2022-10-31T16:50:49;10.40;99.90
50989;DHT22;37008;52.210;21.112;2022-10-31T16:53:16;10.50;99.90
50989;DHT22;37008;52.210;21.112;2022-10-31T16:55:54;10.60;99.90
50989;DHT22;37008;52.210;21.112;2022-10-31T16:58:25;10.70;99.90
50989;DHT22;37008;52.210;21.112;2022-10-31T17:00:52;10.70;99.90
50989;DHT22;37008;52.210;21.112;2022-10-31T17:03:18;10.80;99.90
50989;DHT22;37008;52.210;21.112;2022-10-31T17:05:44;10.90;99.90
50989;DHT22;37008;52.210;21.112;2022-10-31T17:08:10;10.90;99.90
50989;DHT22;37008;52.210;21.112;2022-10-31T17:10:37;11.00;99.90
50989;DHT22;37008;52.210;21.112;2022-10-31T17:13:03;11.00;99.90
50989;DHT22;37008;52.210;21.112;2022-10-31T17:15:41;11.00;99.90
50989;DHT22;37008;52.210;21.112;2022-10-31T17:18:14;11.20;99.90
50989;DHT22;37008;52.210;21.112;2022-10-31T17:20:41;11.20;99.90
50989;DHT22;37008;52.210;21.112;2022-10-31T17:23:09;11.10;99.90
50989;DHT22;37008;52.210;21.112;2022-10-31T17:25:35;11.10;99.90
50989;DHT22;37008;52.210;21.112;2022-10-31T17:28:01;11.20;99.90
50989;DHT22;37008;52.210;21.112;2022-10-31T17:30:27;11.10;99.90
50989;DHT22;37008;52.210;21.112;2022-10-31T17:32:53;11.20;99.90
50989;DHT22;37008;52.210;21.112;2022-10-31T17:35:20;11.20;99.90
50989;DHT22;37008;52.210;21.112;2022-10-31T17:37:46;11.20;99.90
50989;DHT22;37008;52.210;21.112;2022-10-31T17:40:16;11.20;99.90
50989;DHT22;37008;52.210;21.112;2022-10-31T17:42:47;11.20;99.90
50989;DHT22;37008;52.210;21.112;2022-10-31T17:45:13;11.30;99.90
50989;DHT22;37008;52.210;21.112;2022-10-31T17:47:38;11.30;99.90
50989;DHT22;37008;52.210;21.112;2022-10-31T17:50:04;11.30;99.90
50989;DHT22;37008;52.210;21.112;2022-10-31T17:52:30;11.30;99.90
50989;DHT22;37008;52.210;21.112;2022-10-31T17:54:55;11.30;99.90
50989;DHT22;37008;52.210;21.112;2022-10-31T17:57:21;11.30;99.90
50989;DHT22;37008;52.210;21.112;2022-10-31T17:59:46;11.30;99.90
50989;DHT22;37008;52.210;21.112;2022-10-31T18:02:12;11.30;99.90
50989;DHT22;37008;52.210;21.112;2022-10-31T18:04:38;11.40;99.90
50989;DHT22;37008;52.210;21.112;2022-10-31T18:07:06;11.40;99.90
50989;DHT22;37008;52.210;21.112;2022-10-31T18:09:32;11.40;99.90
50989;DHT22;37008;52.210;21.112;2022-10-31T18:11:58;11.40;99.90
50989;DHT22;37008;52.210;21.112;2022-10-31T18:14:24;11.40;99.90
50989;DHT22;37008;52.210;21.112;2022-10-31T18:16:49;11.40;99.90
50989;DHT22;37008;52.210;21.112;2022-10-31T18:19:16;11.40;99.90
50989;DHT22;37008;52.210;21.112;2022-10-31T18:21:43;11.50;99.90
50989;DHT22;37008;52.210;21.112;2022-10-31T18:24:09;11.50;99.90
50989;DHT22;37008;52.210;21.112;2022-10-31T18:26:35;11.50;99.90
50989;DHT22;37008;52.210;21.112;2022-10-31T18:29:00;11.50;99.90
50989;DHT22;37008;52.210;21.112;2022-10-31T18:31:26;11.50;99.90
50989;DHT22;37008;52.210;21.112;2022-10-31T18:33:56;11.50;99.90
50989;DHT22;37008;52.210;21.112;2022-10-31T18:36:22;11.60;99.90
50989;DHT22;37008;52.210;21.112;2022-10-31T18:38:48;11.60;99.90
50989;DHT22;37008;52.210;21.112;2022-10-31T18:41:14;11.60;99.90
50989;DHT22;37008;52.210;21.112;2022-10-31T18:43:40;11.60;99.90
50989;DHT22;37008;52.210;21.112;2022-10-31T18:46:09;11.70;99.90
50989;DHT22;37008;52.210;21.112;2022-10-31T18:48:36;11.60;99.90
50989;DHT22;37008;52.210;21.112;2022-10-31T18:51:05;11.70;99.90
50989;DHT22;37008;52.210;21.112;2022-10-31T18:53:32;11.70;99.90
50989;DHT22;37008;52.210;21.112;2022-10-31T18:55:57;11.70;99.90
50989;DHT22;37008;52.210;21.112;2022-10-31T18:58:24;11.70;99.90
50989;DHT22;37008;52.210;21.112;2022-10-31T19:00:50;11.70;99.90
50989;DHT22;37008;52.210;21.112;2022-10-31T19:03:15;11.70;99.90
50989;DHT22;37008;52.210;21.112;2022-10-31T19:05:41;11.70;99.90
50989;DHT22;37008;52.210;21.112;2022-10-31T19:08:07;11.80;99.90
50989;DHT22;37008;52.210;21.112;2022-10-31T19:10:34;11.80;99.90
50989;DHT22;37008;52.210;21.112;2022-10-31T19:13:00;11.80;99.90
50989;DHT22;37008;52.210;21.112;2022-10-31T19:15:26;11.80;99.90
50989;DHT22;37008;52.210;21.112;2022-10-31T19:17:54;11.80;99.90
50989;DHT22;37008;52.210;21.112;2022-10-31T19:20:20;11.90;99.90
50989;DHT22;37008;52.210;21.112;2022-10-31T19:22:45;11.80;99.90
50989;DHT22;37008;52.210;21.112;2022-10-31T19:25:11;11.80;99.90
50989;DHT22;37008;52.210;21.112;2022-10-31T19:27:37;11.80;99.90
50989;DHT22;37008;52.210;21.112;2022-10-31T19:30:04;11.80;99.90
50989;DHT22;37008;52.210;21.112;2022-10-31T19:32:30;11.90;99.90
50989;DHT22;37008;52.210;21.112;2022-10-31T19:34:55;11.80;99.90
50989;DHT22;37008;52.210;21.112;2022-10-31T19:37:21;11.80;99.90
50989;DHT22;37008;52.210;21.112;2022-10-31T19:39:47;11.80;99.90
50989;DHT22;37008;52.210;21.112;2022-10-31T19:42:12;11.90;99.90
50989;DHT22;37008;52.210;21.112;2022-10-31T19:44:38;11.80;99.90
50989;DHT22;37008;52.210;21.112;2022-10-31T19:47:19;11.90;99.90
50989;DHT22;37008;52.210;21.112;2022-10-31T19:49:44;11.90;99.90
50989;DHT22;37008;52.210;21.112;2022-10-31T19:52:10;11.90;99.90
50989;DHT22;37008;52.210;21.112;2022-10-31T19:54:36;11.90;99.90
50989;DHT22;37008;52.210;21.112;2022-10-31T19:57:01;11.90;99.90
50989;DHT22;37008;52.210;21.112;2022-10-31T19:59:27;11.90;99.90
50989;DHT22;37008;52.210;21.112;2022-10-31T20:01:52;11.90;99.90
50989;DHT22;37008;52.210;21.112;2022-10-31T20:04:18;11.90;99.90